createdAt,value
2023-02-08T00:01:29.769Z,102611.31
2023-02-08T00:03:58.368Z,102606.81
2023-02-08T00:06:27.129Z,102618.22
2023-02-08T00:08:55.617Z,102612.97
2023-02-08T00:11:23.600Z,102614.72
2023-02-08T00:13:51.740Z,102620.00
2023-02-08T00:16:20.137Z,102614.72
2023-02-08T00:18:48.378Z,102611.16
2023-02-08T00:21:19.970Z,102611.09
2023-02-08T00:23:49.021Z,102601.34
2023-02-08T00:26:17.513Z,102599.53
2023-02-08T00:28:47.416Z,102597.75
2023-02-08T00:31:19.328Z,102600.38
2023-02-08T00:33:47.193Z,102593.19
2023-02-08T00:36:15.206Z,102589.78
2023-02-08T00:38:43.204Z,102594.94
2023-02-08T00:41:11.586Z,102597.53
2023-02-08T00:43:40.273Z,102597.47
2023-02-08T00:46:11.184Z,102602.66
2023-02-08T00:48:39.239Z,102595.34
2023-02-08T00:51:13.904Z,102600.81
2023-02-08T00:53:46.074Z,102606.91
2023-02-08T00:56:16.324Z,102606.88
2023-02-08T00:58:45.317Z,102605.88
2023-02-08T01:01:14.826Z,102600.53
2023-02-08T01:03:44.925Z,102605.75
2023-02-08T01:06:18.852Z,102603.91
2023-02-08T01:08:48.110Z,102595.03
2023-02-08T01:11:22.724Z,102603.81
2023-02-08T01:13:57.253Z,102589.63
2023-02-08T01:16:32.831Z,102593.16
2023-02-08T01:19:03.731Z,102591.38
2023-02-08T01:21:39.403Z,102594.84
2023-02-08T01:24:08.032Z,102585.13
2023-02-08T01:26:36.446Z,102591.25
2023-02-08T01:29:07.196Z,102584.19
2023-02-08T01:31:39.456Z,102586.84
2023-02-08T01:34:09.052Z,102579.84
2023-02-08T01:36:38.025Z,102578.06
2023-02-08T01:39:07.646Z,102586.75
2023-02-08T01:41:39.673Z,102570.06
2023-02-08T01:44:08.187Z,102581.44
2023-02-08T01:46:41.046Z,102575.31
2023-02-08T01:49:34.797Z,102577.88
2023-02-08T01:52:19.343Z,102574.31
2023-02-08T01:55:20.552Z,102575.03
2023-02-08T01:57:53.074Z,102571.53
2023-02-08T02:00:24.651Z,102555.69
2023-02-08T02:02:55.764Z,102558.31
2023-02-08T02:05:29.670Z,102559.63
2023-02-08T02:08:00.221Z,102555.44
2023-02-08T02:10:32.664Z,102563.50
2023-02-08T02:13:13.100Z,102559.97
2023-02-08T02:15:45.885Z,102560.81
2023-02-08T02:18:31.170Z,102555.53
2023-02-08T02:21:36.640Z,102552.94
2023-02-08T02:24:39.093Z,102544.03
2023-02-08T02:27:22.600Z,102551.03
2023-02-08T02:30:26.655Z,102537.72
2023-02-08T02:33:37.174Z,102543.81
2023-02-08T02:36:51.691Z,102547.06
2023-02-08T02:39:54.342Z,102537.16
2023-02-08T02:43:18.136Z,102519.41
2023-02-08T02:46:20.704Z,102530.06
2023-02-08T02:49:04.018Z,102524.72
2023-02-08T02:51:51.532Z,102534.47
2023-02-08T02:54:33.449Z,102533.63
2023-02-08T02:57:06.448Z,102526.59
2023-02-08T02:59:36.587Z,102534.31
2023-02-08T03:02:04.984Z,102545.53
2023-02-08T03:04:32.710Z,102530.41
2023-02-08T03:07:20.658Z,102536.28
2023-02-08T03:10:14.590Z,102519.09
2023-02-08T03:13:09.526Z,102536.50
2023-02-08T03:15:59.475Z,102538.97
2023-02-08T03:19:02.122Z,102536.13
2023-02-08T03:22:12.740Z,102528.06
2023-02-08T03:24:58.476Z,102527.00
2023-02-08T03:27:44.858Z,102529.44
2023-02-08T03:30:45.870Z,102521.38
2023-02-08T03:33:21.076Z,102538.00
2023-02-08T03:36:27.241Z,102539.66
2023-02-08T03:38:56.015Z,102543.13
2023-02-08T03:41:32.739Z,102528.41
2023-02-08T03:44:09.567Z,102534.53
2023-02-08T03:47:22.232Z,102548.66
2023-02-08T03:49:53.576Z,102541.59
2023-02-08T03:52:22.663Z,102546.13
2023-02-08T03:55:05.012Z,102547.31
2023-02-08T03:57:46.669Z,102545.53
2023-02-08T04:00:18.492Z,102553.31
2023-02-08T04:03:19.374Z,102555.88
2023-02-08T04:05:47.927Z,102550.44
2023-02-08T04:08:16.022Z,102547.81
2023-02-08T04:10:43.910Z,102544.22
2023-02-08T04:13:11.862Z,102553.84
2023-02-08T04:15:39.685Z,102549.22
2023-02-08T04:18:07.485Z,102554.44
2023-02-08T04:20:35.355Z,102545.72
2023-02-08T04:23:03.172Z,102542.97
2023-02-08T04:25:31.047Z,102544.81
2023-02-08T04:27:59.832Z,102539.50
2023-02-08T04:30:27.740Z,102547.38
2023-02-08T04:32:55.526Z,102555.19
2023-02-08T04:35:23.215Z,102552.34
2023-02-08T04:37:51.367Z,102538.88
2023-02-08T04:40:19.161Z,102535.03
2023-02-08T04:42:46.899Z,102541.97
2023-02-08T04:45:14.769Z,102527.53
2023-02-08T04:47:42.521Z,102541.47
2023-02-08T04:50:10.487Z,102539.56
2023-02-08T04:52:38.276Z,102535.78
2023-02-08T04:55:06.700Z,102537.34
2023-02-08T04:57:34.395Z,102536.28
2023-02-08T05:00:02.380Z,102536.09
2023-02-08T05:02:30.169Z,102525.28
2023-02-08T05:04:57.977Z,102530.25
2023-02-08T05:07:25.846Z,102526.66
2023-02-08T05:09:53.953Z,102532.69
2023-02-08T05:12:21.775Z,102527.44
2023-02-08T05:14:49.879Z,102523.19
2023-02-08T05:17:17.595Z,102526.88
2023-02-08T05:19:45.265Z,102528.81
2023-02-08T05:22:12.956Z,102521.00
2023-02-08T05:24:40.706Z,102526.38
2023-02-08T05:27:08.463Z,102524.53
2023-02-08T05:29:36.180Z,102526.41
2023-02-08T05:32:04.227Z,102524.59
2023-02-08T05:34:32.095Z,102527.34
2023-02-08T05:37:00.046Z,102518.50
2023-02-08T05:39:27.765Z,102519.91
2023-02-08T05:41:55.638Z,102524.09
2023-02-08T05:44:23.304Z,102526.53
2023-02-08T05:46:51.337Z,102530.81
2023-02-08T05:49:19.094Z,102526.25
2023-02-08T05:51:46.838Z,102518.16
2023-02-08T05:54:14.779Z,102526.06
2023-02-08T05:56:42.807Z,102524.19
2023-02-08T05:59:11.295Z,102533.66
2023-02-08T06:01:39.191Z,102534.22
2023-02-08T06:04:07.172Z,102533.25
2023-02-08T06:06:34.939Z,102531.25
2023-02-08T06:09:03.112Z,102537.13
2023-02-08T06:11:30.944Z,102538.84
2023-02-08T06:13:58.691Z,102537.00
2023-02-08T06:16:27.244Z,102530.75
2023-02-08T06:18:55.042Z,102539.53
2023-02-08T06:21:24.459Z,102540.63
2023-02-08T06:23:52.437Z,102537.25
2023-02-08T06:26:20.456Z,102544.47
2023-02-08T06:28:48.156Z,102537.63
2023-02-08T06:31:15.848Z,102536.75
2023-02-08T06:33:43.599Z,102539.63
2023-02-08T06:36:11.270Z,102547.66
2023-02-08T06:38:39.032Z,102547.91
2023-02-08T06:41:06.762Z,102551.50
2023-02-08T06:43:34.484Z,102546.34
2023-02-08T06:46:04.939Z,102553.50
2023-02-08T06:48:32.903Z,102551.03
2023-02-08T06:51:01.012Z,102553.69
2023-02-08T06:53:29.385Z,102557.34
2023-02-08T06:55:57.410Z,102557.41
2023-02-08T06:58:25.183Z,102556.50
2023-02-08T07:00:53.180Z,102550.47
2023-02-08T07:03:22.481Z,102556.75
2023-02-08T07:06:04.195Z,102553.28
2023-02-08T07:08:35.920Z,102558.66
2023-02-08T07:11:12.098Z,102560.47
2023-02-08T07:13:40.417Z,102564.84
2023-02-08T07:16:10.189Z,102568.47
2023-02-08T07:18:38.053Z,102566.56
2023-02-08T07:21:06.320Z,102566.88
2023-02-08T07:23:34.227Z,102563.47
2023-02-08T07:26:11.041Z,102557.34
2023-02-08T07:28:38.997Z,102562.53
2023-02-08T07:31:09.743Z,102550.28
2023-02-08T07:33:38.559Z,102572.22
2023-02-08T07:36:08.003Z,102561.63
2023-02-08T07:38:36.896Z,102559.91
2023-02-08T07:41:08.511Z,102561.69
2023-02-08T07:43:38.740Z,102573.13
2023-02-08T07:46:10.326Z,102558.22
2023-02-08T07:48:40.236Z,102563.94
2023-02-08T07:51:09.701Z,102557.16
2023-02-08T07:53:38.129Z,102559.25
2023-02-08T07:56:06.584Z,102553.97
2023-02-08T07:58:34.258Z,102554.13
2023-02-08T08:01:15.842Z,102548.16
2023-02-08T08:03:51.222Z,102542.28
2023-02-08T08:06:23.291Z,102554.72
2023-02-08T08:08:51.598Z,102562.69
2023-02-08T08:11:21.234Z,102548.69
2023-02-08T08:13:50.224Z,102551.66
2023-02-08T08:16:18.971Z,102546.63
2023-02-08T08:18:48.303Z,102555.69
2023-02-08T08:21:16.748Z,102551.47
2023-02-08T08:23:44.818Z,102541.22
2023-02-08T08:26:21.450Z,102546.84
2023-02-08T08:28:49.662Z,102552.34
2023-02-08T08:31:21.338Z,102543.75
2023-02-08T08:33:49.712Z,102545.78
2023-02-08T08:36:17.791Z,102527.22
2023-02-08T08:38:45.570Z,102541.66
2023-02-08T08:41:17.796Z,102546.16
2023-02-08T08:43:45.735Z,102537.72
2023-02-08T08:46:15.004Z,102522.81
2023-02-08T08:48:42.927Z,102540.69
2023-02-08T08:51:35.125Z,102537.34
2023-02-08T08:54:06.581Z,102536.75
2023-02-08T08:56:34.884Z,102539.03
2023-02-08T08:59:02.529Z,102549.03
2023-02-08T09:01:33.611Z,102549.31
2023-02-08T09:04:02.309Z,102538.84
2023-02-08T09:06:30.355Z,102538.25
2023-02-08T09:08:58.185Z,102535.81
2023-02-08T09:11:25.944Z,102544.00
2023-02-08T09:13:56.228Z,102541.53
2023-02-08T09:16:25.422Z,102542.66
2023-02-08T09:18:53.273Z,102532.38
2023-02-08T09:21:26.523Z,102519.34
2023-02-08T09:23:54.552Z,102539.66
2023-02-08T09:26:23.418Z,102530.94
2023-02-08T09:28:51.228Z,102531.22
2023-02-08T09:31:33.046Z,102524.50
2023-02-08T09:34:01.846Z,102507.81
2023-02-08T09:36:34.542Z,102516.03
2023-02-08T09:39:14.295Z,102515.53
2023-02-08T09:42:00.502Z,102516.59
2023-02-08T09:45:04.629Z,102521.09
2023-02-08T09:47:36.497Z,102510.63
2023-02-08T09:50:42.950Z,102518.78
2023-02-08T09:53:30.947Z,102511.91
2023-02-08T09:56:06.967Z,102506.78
2023-02-08T09:58:49.732Z,102514.16
2023-02-08T10:01:36.094Z,102511.66
2023-02-08T10:04:30.066Z,102502.94
2023-02-08T10:06:57.890Z,102502.13
2023-02-08T10:09:27.584Z,102496.94
2023-02-08T10:12:14.192Z,102491.88
2023-02-08T10:14:59.864Z,102497.19
2023-02-08T10:17:58.256Z,102494.56
2023-02-08T10:21:14.080Z,102484.03
2023-02-08T10:24:03.507Z,102492.25
2023-02-08T10:26:44.934Z,102483.50
2023-02-08T10:29:35.786Z,102485.09
2023-02-08T10:32:35.315Z,102485.44
2023-02-08T10:35:11.129Z,102472.41
2023-02-08T10:37:43.602Z,102476.94
2023-02-08T10:40:31.214Z,102465.66
2023-02-08T10:43:31.644Z,102465.88
2023-02-08T10:46:23.078Z,102477.50
2023-02-08T10:49:15.025Z,102470.56
2023-02-08T10:51:43.087Z,102461.84
2023-02-08T10:54:13.887Z,102455.78
2023-02-08T10:56:57.467Z,102462.06
2023-02-08T10:59:59.203Z,102446.34
2023-02-08T11:02:33.049Z,102449.06
2023-02-08T11:05:07.710Z,102428.06
2023-02-08T11:07:37.121Z,102423.69
2023-02-08T11:10:19.897Z,102431.72
2023-02-08T11:13:06.876Z,102419.47
2023-02-08T11:15:40.054Z,102431.00
2023-02-08T11:18:49.213Z,102411.66
2023-02-08T11:21:34.660Z,102414.31
2023-02-08T11:24:35.950Z,102403.75
2023-02-08T11:27:40.514Z,102409.16
2023-02-08T11:30:14.589Z,102403.06
2023-02-08T11:32:46.063Z,102396.13
2023-02-08T11:35:26.497Z,102404.13
2023-02-08T11:37:58.820Z,102392.75
2023-02-08T11:40:37.920Z,102387.56
2023-02-08T11:43:06.082Z,102397.38
2023-02-08T11:45:36.804Z,102396.59
2023-02-08T11:48:07.259Z,102386.88
2023-02-08T11:50:38.414Z,102380.91
2023-02-08T11:53:27.893Z,102383.56
2023-02-08T11:56:15.732Z,102387.16
2023-02-08T11:59:22.598Z,102387.25
2023-02-08T12:01:50.609Z,102389.06
2023-02-08T12:04:18.639Z,102389.19
2023-02-08T12:07:17.499Z,102387.53
2023-02-08T12:10:12.508Z,102387.66
2023-02-08T12:13:01.776Z,102390.28
2023-02-08T12:16:01.123Z,102393.81
2023-02-08T12:18:50.763Z,102377.09
2023-02-08T12:21:27.206Z,102372.72
2023-02-08T12:24:49.399Z,102374.53
2023-02-08T12:27:27.571Z,102351.72
2023-02-08T12:30:29.694Z,102350.94
2023-02-08T12:33:43.727Z,102350.03
2023-02-08T12:36:45.781Z,102341.31
2023-02-08T12:39:36.441Z,102324.31
2023-02-08T12:42:27.315Z,102330.69
2023-02-08T12:45:17.503Z,102325.59
2023-02-08T12:48:12.874Z,102322.94
2023-02-08T12:51:00.334Z,102323.84
2023-02-08T12:53:35.040Z,102316.88
2023-02-08T12:56:12.067Z,102310.81
2023-02-08T12:59:01.968Z,102305.47
2023-02-08T13:01:47.273Z,102313.53
2023-02-08T13:04:26.149Z,102303.00
2023-02-08T13:06:59.207Z,102296.03
2023-02-08T13:09:35.266Z,102295.19
2023-02-08T13:12:20.778Z,102296.97
2023-02-08T13:15:03.300Z,102298.78
2023-02-08T13:17:54.423Z,102301.44
2023-02-08T13:20:47.805Z,102287.28
2023-02-08T13:23:52.052Z,102271.47
2023-02-08T13:26:33.403Z,102278.59
2023-02-08T13:29:03.239Z,102274.19
2023-02-08T13:31:39.372Z,102259.19
2023-02-08T13:34:31.085Z,102261.97
2023-02-08T13:37:08.844Z,102262.88
2023-02-08T13:39:44.171Z,102247.00
2023-02-08T13:42:33.863Z,102251.50
2023-02-08T13:45:02.906Z,102245.28
2023-02-08T13:47:45.888Z,102242.69
2023-02-08T13:50:51.134Z,102245.38
2023-02-08T13:53:39.654Z,102248.91
2023-02-08T13:56:13.001Z,102241.84
2023-02-08T13:58:49.965Z,102244.59
2023-02-08T14:01:19.725Z,102239.25
2023-02-08T14:04:12.227Z,102248.16
2023-02-08T14:07:00.156Z,102242.00
2023-02-08T14:10:01.809Z,102240.22
2023-02-08T14:13:08.449Z,102239.34
2023-02-08T14:15:40.085Z,102238.47
2023-02-08T14:18:26.966Z,102223.53
2023-02-08T14:21:05.971Z,102229.72
2023-02-08T14:23:40.200Z,102220.91
2023-02-08T14:26:24.013Z,102223.59
2023-02-08T14:28:58.737Z,102225.34
2023-02-08T14:31:43.232Z,102217.44
2023-02-08T14:34:38.154Z,102218.34
2023-02-08T14:37:18.745Z,102215.69
2023-02-08T14:39:50.533Z,102211.22
2023-02-08T14:43:04.616Z,102213.91
2023-02-08T14:45:39.935Z,102218.38
2023-02-08T14:48:48.953Z,102206.00
2023-02-08T14:51:32.197Z,102199.84
2023-02-08T14:54:35.443Z,102214.00
2023-02-08T14:57:36.637Z,102201.63
2023-02-08T15:00:21.028Z,102196.34
2023-02-08T15:02:52.850Z,102200.75
2023-02-08T15:05:30.271Z,102198.09
2023-02-08T15:08:00.757Z,102191.94
2023-02-08T15:10:30.342Z,102187.50
2023-02-08T15:13:03.891Z,102183.97
2023-02-08T15:15:39.502Z,102183.09
2023-02-08T15:18:20.660Z,102184.88
2023-02-08T15:21:05.514Z,102187.50
2023-02-08T15:23:33.671Z,102176.03
2023-02-08T15:26:22.051Z,102176.97
2023-02-08T15:28:50.067Z,102171.63
2023-02-08T15:31:23.189Z,102166.38
2023-02-08T15:44:24.897Z,102176.81
2023-02-08T15:49:41.458Z,102178.63
2023-02-08T15:52:17.692Z,102176.81
2023-02-08T15:54:46.758Z,102167.03
2023-02-08T15:57:40.798Z,102176.81
2023-02-08T16:00:21.281Z,102159.13
2023-02-08T16:03:00.730Z,102168.84
2023-02-08T16:05:33.671Z,102160.91
2023-02-08T16:08:03.173Z,102167.13
2023-02-08T16:10:42.700Z,102175.00
2023-02-08T16:13:20.713Z,102172.38
2023-02-08T16:16:07.260Z,102175.91
2023-02-08T16:18:57.224Z,102161.72
2023-02-08T16:21:24.854Z,102170.50
2023-02-08T16:24:05.565Z,102171.38
2023-02-08T16:26:56.241Z,102173.94
2023-02-08T16:29:31.239Z,102176.56
2023-02-08T16:32:05.100Z,102182.72
2023-02-08T16:34:39.602Z,102174.78
2023-02-08T16:37:32.687Z,102178.22
2023-02-08T16:40:41.670Z,102174.69
2023-02-08T16:43:20.498Z,102182.56
2023-02-08T16:46:11.087Z,102186.97
2023-02-08T16:48:55.044Z,102191.38
2023-02-08T16:51:29.663Z,102191.34
2023-02-08T16:54:09.612Z,102187.78
2023-02-08T16:56:39.423Z,102194.81
2023-02-08T16:59:08.037Z,102185.06
2023-02-08T17:01:36.282Z,102187.66
2023-02-08T17:04:04.567Z,102202.69
2023-02-08T17:06:36.067Z,102192.94
2023-02-08T17:09:05.282Z,102183.00
2023-02-08T17:11:33.312Z,102191.91
2023-02-08T17:14:01.201Z,102191.03
2023-02-08T17:16:31.272Z,102194.56
2023-02-08T17:19:00.701Z,102198.06
2023-02-08T17:21:29.467Z,102191.88
2023-02-08T17:23:58.167Z,102191.81
2023-02-08T17:26:32.361Z,102190.09
2023-02-08T17:29:00.470Z,102187.41
2023-02-08T17:31:29.623Z,102184.75
2023-02-08T17:34:07.118Z,102187.41
2023-02-08T17:36:37.019Z,102187.34
2023-02-08T17:39:06.617Z,102194.41
2023-02-08T17:41:34.555Z,102201.44
2023-02-08T17:44:02.546Z,102185.50
2023-02-08T17:46:30.740Z,102196.97
2023-02-08T17:49:01.517Z,102196.03
2023-02-08T17:51:29.502Z,102203.03
2023-02-08T17:53:57.397Z,102198.53
2023-02-08T17:56:28.792Z,102206.56
2023-02-08T17:58:56.549Z,102200.22
2023-02-08T18:01:26.869Z,102208.31
2023-02-08T18:03:54.803Z,102205.53
2023-02-08T18:06:24.991Z,102197.59
2023-02-08T18:08:54.827Z,102196.66
2023-02-08T18:11:23.908Z,102196.63
2023-02-08T18:13:53.861Z,102192.22
2023-02-08T18:16:26.312Z,102203.63
2023-02-08T18:18:59.267Z,102197.44
2023-02-08T18:21:27.530Z,102208.03
2023-02-08T18:23:55.684Z,102221.22
2023-02-08T18:26:25.221Z,102208.81
2023-02-08T18:28:53.804Z,102209.63
2023-02-08T18:31:22.420Z,102210.47
2023-02-08T18:33:51.245Z,102209.56
2023-02-08T18:36:20.937Z,102221.00
2023-02-08T18:38:52.428Z,102211.22
2023-02-08T18:41:25.362Z,102218.19
2023-02-08T18:43:56.127Z,102219.94
2023-02-08T18:46:28.037Z,102218.13
2023-02-08T18:48:56.226Z,102208.34
2023-02-08T18:51:26.446Z,102226.00
2023-02-08T18:53:56.055Z,102224.13
2023-02-08T18:56:27.215Z,102215.16
2023-02-08T18:58:58.012Z,102225.78
2023-02-08T19:01:25.950Z,102225.72
2023-02-08T19:03:54.055Z,102214.19
2023-02-08T19:06:25.491Z,102212.44
2023-02-08T19:08:56.641Z,102219.47
2023-02-08T19:11:31.269Z,102218.44
2023-02-08T19:14:02.131Z,102226.44
2023-02-08T19:16:32.427Z,102219.34
2023-02-08T19:19:01.627Z,102209.63
2023-02-08T19:21:30.739Z,102213.16
2023-02-08T19:24:00.550Z,102216.53
2023-02-08T19:26:40.043Z,102227.97
2023-02-08T19:29:13.533Z,102214.66
2023-02-08T19:31:42.454Z,102219.88
2023-02-08T19:34:11.925Z,102233.13
2023-02-08T19:36:52.996Z,102226.91
2023-02-08T19:39:24.907Z,102215.38
2023-02-08T19:41:54.104Z,102226.81
2023-02-08T19:44:22.700Z,102219.78
2023-02-08T19:46:55.130Z,102225.06
2023-02-08T19:49:25.799Z,102214.41
2023-02-08T19:51:54.098Z,102208.19
2023-02-08T19:54:22.088Z,102202.00
2023-02-08T19:56:52.149Z,102204.66
2023-02-08T19:59:28.099Z,102216.16
2023-02-08T20:01:56.314Z,102219.63
2023-02-08T20:04:24.632Z,102219.75
2023-02-08T20:06:54.037Z,102213.56
2023-02-08T20:09:24.463Z,102220.56
2023-02-08T20:11:59.757Z,102213.50
2023-02-08T20:14:32.821Z,102217.03
2023-02-08T20:17:04.617Z,102215.22
2023-02-08T20:19:37.309Z,102204.59
2023-02-08T20:22:05.547Z,102205.38
2023-02-08T20:24:33.426Z,102212.41
2023-02-08T20:27:01.536Z,102213.19
2023-02-08T20:29:29.790Z,102222.00
2023-02-08T20:31:58.028Z,102217.56
2023-02-08T20:34:26.012Z,102218.28
2023-02-08T20:37:06.245Z,102217.41
2023-02-08T20:39:36.198Z,102215.63
2023-02-08T20:42:04.667Z,102216.44
2023-02-08T20:44:32.675Z,102222.59
2023-02-08T20:47:01.017Z,102225.22
2023-02-08T20:49:30.740Z,102226.13
2023-02-08T20:52:19.425Z,102221.66
2023-02-08T20:54:47.844Z,102220.78
2023-02-08T20:57:16.385Z,102225.19
2023-02-08T20:59:46.096Z,102214.59
2023-02-08T21:02:23.290Z,102217.22
2023-02-08T21:04:51.166Z,102215.34
2023-02-08T21:07:19.225Z,102209.09
2023-02-08T21:09:47.277Z,102208.94
2023-02-08T21:12:15.208Z,102209.78
2023-02-08T21:14:44.547Z,102210.56
2023-02-08T21:17:12.681Z,102221.97
2023-02-08T21:19:40.490Z,102209.56
2023-02-08T21:22:08.353Z,102200.59
2023-02-08T21:24:36.198Z,102194.19
2023-02-08T21:27:04.150Z,102195.94
2023-02-08T21:29:32.815Z,102193.19
2023-02-08T21:32:01.125Z,102186.16
2023-02-08T21:34:29.172Z,102186.06
2023-02-08T21:36:57.044Z,102183.31
2023-02-08T21:39:24.763Z,102183.28
2023-02-08T21:41:53.087Z,102189.47
2023-02-08T21:44:21.141Z,102166.44
2023-02-08T21:46:48.937Z,102185.09
2023-02-08T21:49:35.336Z,102163.81
2023-02-08T21:52:21.977Z,102176.28
2023-02-08T21:54:53.491Z,102169.25
2023-02-08T21:57:25.796Z,102169.25
2023-02-08T21:59:58.436Z,102160.41
2023-02-08T22:02:29.941Z,102163.88
2023-02-08T22:05:20.584Z,102147.13
2023-02-08T22:07:56.794Z,102148.97
2023-02-08T22:10:28.403Z,102154.25
2023-02-08T22:12:57.370Z,102157.75
2023-02-08T22:15:29.023Z,102156.88
2023-02-08T22:18:00.726Z,102159.44
2023-02-08T22:20:29.757Z,102146.34
2023-02-08T22:22:57.895Z,102144.47
2023-02-08T22:25:25.862Z,102148.88
2023-02-08T22:27:53.799Z,102137.38
2023-02-08T22:30:25.029Z,102135.38
2023-02-08T22:32:53.366Z,102136.22
2023-02-08T22:35:21.500Z,102138.75
2023-02-08T22:37:49.361Z,102135.16
2023-02-08T22:40:17.321Z,102129.78
2023-02-08T22:42:45.225Z,102135.03
2023-02-08T22:45:13.144Z,102121.81
2023-02-08T22:47:40.944Z,102130.66
2023-02-08T22:50:09.941Z,102121.81
2023-02-08T22:52:38.029Z,102118.19
2023-02-08T22:55:06.546Z,102129.75
2023-02-08T22:57:37.445Z,102135.00
2023-02-08T23:00:09.716Z,102124.31
2023-02-08T23:02:37.563Z,102134.06
2023-02-08T23:05:05.826Z,102133.16
2023-02-08T23:07:33.937Z,102135.91
2023-02-08T23:10:01.733Z,102147.41
2023-02-08T23:12:30.746Z,102140.44
2023-02-08T23:14:58.565Z,102143.13
2023-02-08T23:17:26.576Z,102136.09
2023-02-08T23:19:54.367Z,102135.25
2023-02-08T23:22:22.252Z,102140.63
2023-02-08T23:24:50.002Z,102135.38
2023-02-08T23:27:17.955Z,102124.75
2023-02-08T23:29:45.830Z,102127.38
2023-02-08T23:32:13.706Z,102127.41
2023-02-08T23:34:41.464Z,102097.34
2023-02-08T23:37:09.391Z,102121.16
2023-02-08T23:39:37.155Z,102118.47
2023-02-08T23:42:05.717Z,102114.91
2023-02-08T23:44:33.436Z,102113.09
2023-02-08T23:47:01.244Z,102108.63
2023-02-08T23:49:28.972Z,102109.59
2023-02-08T23:51:56.707Z,102107.72
2023-02-08T23:54:24.432Z,102117.41
2023-02-08T23:56:52.097Z,102109.41
2023-02-08T23:59:19.824Z,102108.44
